Main page
METAR-TAF:

METAR-TAF

Airports :

RAF Lossiemouth

Lossiemouth, Scotland

latitude: 57-43N, longitude: 003-19W, elevation: 13 m

Current weather observation

The report was made 39 minutes ago, at 05:50 UTC
Wind 4 kt from the Southwest
Temperature 9°C
Humidity 81%
Pressure 1010 hPa
Visibility 10 km or more
Few clouds at a height of 3500 ft
Broken clouds at a height of 4000 ft

METAR: EGQS 170550Z 22004KT 9999 FEW035 BKN040 09/06 Q1010 BLU NOSIG

Time: 07:29 (06:29 UTC)

Forecast

The report was made 1 hour and 55 minutes ago, at 04:34 UTC
Forecast valid from 17 at 06 UTC to 17 at 24 UTC
Wind 8 kt from the Southwest
Visibility 10 km or more
Scattered clouds at a height of 4000 ft
Probability 40% :
Temporary
from 17 at 09 UTC to 17 at 18 UTC
Wind 15 kt from the West with gusts up to 25 kt

TAF: EGQS 170434Z 1706/1724 23008KT 9999 SCT040 PROB40 TEMPO 1709/1718 26015G25KT

Weather observations and forecasts of more than 4000 airports (METAR and TAF reports).

The available stations are represented by yellow and red dots on the map.

Hover mouse over dot to see the name of the station.

Then click to see weather observations and forecasts.

To change the map : click on the green buttons with a black cross to zoom in, on the green button with a dash to zoom out, or on the green arrows for adjacent maps.


METAR-TAF: